createdAt,value
2019-05-06T00:00:59.546Z,4.10
2019-05-06T00:03:29.864Z,4.10
2019-05-06T00:06:00.883Z,4.10
2019-05-06T00:08:34.563Z,4.10
2019-05-06T00:11:06.109Z,4.10
2019-05-06T00:13:38.481Z,4.20
2019-05-06T00:16:09.672Z,4.20
2019-05-06T00:18:41.465Z,4.20
2019-05-06T00:21:14.823Z,4.20
2019-05-06T00:23:54.701Z,4.30
2019-05-06T00:26:44.823Z,4.30
2019-05-06T00:29:18.185Z,4.30
2019-05-06T00:31:50.426Z,4.30
2019-05-06T00:34:21.829Z,4.20
2019-05-06T00:36:54.482Z,4.20
2019-05-06T00:39:44.638Z,4.10
2019-05-06T00:42:29.751Z,4.10
2019-05-06T00:45:04.242Z,4.10
2019-05-06T00:47:35.261Z,4.10
2019-05-06T00:50:06.542Z,4.10
2019-05-06T00:52:38.347Z,4.20
2019-05-06T00:55:09.434Z,4.30
2019-05-06T00:57:45.542Z,4.30
2019-05-06T01:00:24.443Z,4.30
2019-05-06T01:02:55.255Z,4.20
2019-05-06T01:05:26.392Z,4.20
2019-05-06T01:07:57.887Z,4.10
2019-05-06T01:10:29.139Z,4.10
2019-05-06T01:13:06.966Z,4.10
2019-05-06T01:15:37.535Z,4.00
2019-05-06T01:18:09.374Z,3.90
2019-05-06T01:20:41.640Z,3.90
2019-05-06T01:23:14.241Z,3.90
2019-05-06T01:25:45.117Z,3.80
2019-05-06T01:28:18.615Z,3.80
2019-05-06T01:30:50.131Z,3.70
2019-05-06T01:33:24.172Z,3.60
2019-05-06T01:35:55.008Z,3.60
2019-05-06T01:38:34.069Z,3.60
2019-05-06T01:41:24.546Z,3.60
2019-05-06T01:43:55.594Z,3.60
2019-05-06T01:46:28.375Z,3.70
2019-05-06T01:48:59.063Z,3.70
2019-05-06T01:51:29.633Z,3.70
2019-05-06T01:54:03.597Z,3.60
2019-05-06T01:56:34.568Z,3.60
2019-05-06T01:59:06.595Z,3.60
2019-05-06T02:01:53.489Z,3.50
2019-05-06T02:04:13.822Z,3.50
2019-05-06T02:06:46.587Z,3.50
2019-05-06T02:09:18.344Z,3.50
2019-05-06T02:11:49.076Z,3.50
2019-05-06T02:14:21.379Z,3.50
2019-05-06T02:16:54.641Z,3.50
2019-05-06T02:19:25.581Z,3.50
2019-05-06T02:22:08.192Z,3.50
2019-05-06T02:24:50.037Z,3.50
2019-05-06T02:27:24.266Z,3.50
2019-05-06T02:30:20.761Z,3.40
2019-05-06T02:33:09.791Z,3.40
2019-05-06T02:36:01.301Z,3.40
2019-05-06T02:38:45.948Z,3.40
2019-05-06T02:41:13.379Z,3.40
2019-05-06T02:43:43.659Z,3.40
2019-05-06T02:46:15.654Z,3.40
2019-05-06T02:49:04.236Z,3.40
2019-05-06T02:51:35.429Z,3.40
2019-05-06T02:54:06.653Z,3.40
2019-05-06T02:56:37.815Z,3.30
2019-05-06T02:59:13.035Z,3.30
2019-05-06T03:01:44.047Z,3.20
2019-05-06T03:04:16.681Z,3.20
2019-05-06T03:06:47.186Z,3.20
2019-05-06T03:09:23.279Z,3.20
2019-05-06T03:11:54.301Z,3.20
2019-05-06T03:14:25.034Z,3.10
2019-05-06T03:16:56.267Z,3.10
2019-05-06T03:19:29.010Z,3.10
2019-05-06T03:22:27.673Z,3.10
2019-05-06T03:25:13.356Z,3.10
2019-05-06T03:27:46.895Z,3.10
2019-05-06T03:30:17.383Z,3.10
2019-05-06T03:33:28.216Z,3.00
2019-05-06T03:35:36.465Z,3.00
2019-05-06T03:37:55.184Z,3.00
2019-05-06T03:40:28.301Z,3.00
2019-05-06T03:43:02.624Z,3.00
2019-05-06T03:45:54.681Z,2.90
2019-05-06T03:48:34.392Z,2.90
2019-05-06T03:51:07.004Z,2.90
2019-05-06T03:53:37.665Z,2.90
2019-05-06T03:56:14.341Z,3.00
2019-05-06T03:58:43.716Z,3.00
2019-05-06T04:01:24.098Z,3.00
2019-05-06T04:03:57.145Z,3.00
2019-05-06T04:06:28.697Z,2.90
2019-05-06T04:09:04.627Z,2.90
2019-05-06T04:11:36.730Z,2.80
2019-05-06T04:14:08.057Z,2.80
2019-05-06T04:16:58.138Z,2.80
2019-05-06T04:19:35.162Z,2.80
2019-05-06T04:22:38.942Z,2.80
2019-05-06T04:25:34.004Z,2.70
2019-05-06T04:28:17.599Z,2.70
2019-05-06T04:30:48.405Z,2.70
2019-05-06T04:33:19.241Z,2.70
2019-05-06T04:35:54.079Z,2.80
2019-05-06T04:38:24.938Z,2.80
2019-05-06T04:40:55.616Z,2.80
2019-05-06T04:43:28.271Z,2.90
2019-05-06T04:46:03.227Z,2.90
2019-05-06T04:48:47.480Z,2.90
2019-05-06T04:51:24.638Z,2.90
2019-05-06T04:53:54.789Z,2.90
2019-05-06T04:56:33.151Z,2.90
2019-05-06T04:59:05.782Z,2.90
2019-05-06T05:01:36.621Z,2.90
2019-05-06T05:04:22.841Z,2.90
2019-05-06T05:06:43.073Z,3.00
2019-05-06T05:09:16.594Z,3.10
2019-05-06T05:11:53.931Z,3.10
2019-05-06T05:14:51.787Z,3.20
2019-05-06T05:17:45.608Z,3.20
2019-05-06T05:20:17.749Z,3.20
2019-05-06T05:22:53.610Z,3.30
2019-05-06T05:25:24.438Z,3.40
2019-05-06T05:27:56.110Z,3.40
2019-05-06T05:30:28.851Z,3.40
2019-05-06T05:33:02.625Z,3.50
2019-05-06T05:35:35.240Z,3.60
2019-05-06T05:38:07.218Z,3.60
2019-05-06T05:40:38.694Z,3.60
2019-05-06T05:43:39.375Z,3.70
2019-05-06T05:46:12.627Z,3.80
2019-05-06T05:49:12.763Z,3.90
2019-05-06T05:51:44.485Z,3.90
2019-05-06T05:54:17.584Z,4.00
2019-05-06T05:56:49.757Z,4.10
2019-05-06T05:59:23.396Z,4.10
2019-05-06T06:01:54.479Z,4.20
2019-05-06T06:04:26.239Z,4.30
2019-05-06T06:06:56.792Z,4.40
2019-05-06T06:09:32.768Z,4.40
2019-05-06T06:12:06.762Z,4.40
2019-05-06T06:14:57.634Z,4.50
2019-05-06T06:17:52.923Z,4.50
2019-05-06T06:20:42.396Z,4.60
2019-05-06T06:23:22.956Z,4.60
2019-05-06T06:25:54.145Z,4.70
2019-05-06T06:28:25.421Z,4.80
2019-05-06T06:31:19.204Z,4.80
2019-05-06T06:33:53.093Z,4.90
2019-05-06T06:36:43.962Z,5.10
2019-05-06T06:39:22.895Z,5.10
2019-05-06T06:41:54.462Z,5.20
2019-05-06T06:44:28.794Z,5.30
2019-05-06T06:47:01.955Z,5.30
2019-05-06T06:49:33.729Z,5.40
2019-05-06T06:52:10.900Z,5.50
2019-05-06T06:54:40.008Z,5.50
2019-05-06T06:57:22.947Z,5.60
2019-05-06T07:00:12.479Z,5.70
2019-05-06T07:02:59.169Z,5.80
2019-05-06T07:05:38.546Z,5.90
2019-05-06T07:08:09.411Z,5.90
2019-05-06T07:10:44.391Z,6.00
2019-05-06T07:13:15.882Z,6.10
2019-05-06T07:15:46.766Z,6.20
2019-05-06T07:18:18.577Z,6.30
2019-05-06T07:21:04.844Z,6.40
2019-05-06T07:23:36.337Z,6.40
2019-05-06T07:26:07.361Z,6.50
2019-05-06T07:28:38.606Z,6.60
2019-05-06T07:31:21.158Z,6.70
2019-05-06T07:33:43.541Z,6.80
2019-05-06T07:36:15.611Z,6.90
2019-05-06T07:38:52.994Z,7.00
2019-05-06T07:41:32.499Z,7.10
2019-05-06T07:44:25.796Z,7.20
2019-05-06T07:47:07.219Z,7.30
2019-05-06T07:49:37.612Z,7.40
2019-05-06T07:55:49.502Z,7.60
2019-05-06T07:58:22.637Z,7.80
2019-05-06T08:00:55.299Z,7.90
2019-05-06T08:03:26.854Z,8.00
2019-05-06T08:05:58.829Z,8.00
2019-05-06T08:08:39.456Z,8.20
2019-05-06T08:11:12.385Z,8.30
2019-05-06T08:13:49.039Z,8.50
2019-05-06T08:16:32.139Z,8.60
2019-05-06T08:19:05.549Z,8.70
2019-05-06T08:21:42.799Z,8.70
2019-05-06T08:24:17.708Z,8.70
2019-05-06T08:26:52.087Z,8.80
2019-05-06T08:29:30.323Z,8.90
2019-05-06T08:32:05.973Z,9.00
2019-05-06T08:34:42.138Z,9.00
2019-05-06T08:37:32.271Z,9.10
2019-05-06T08:40:04.261Z,9.10
2019-05-06T08:42:36.953Z,9.10
2019-05-06T08:45:12.841Z,9.10
2019-05-06T08:51:33.183Z,9.20
2019-05-06T08:54:10.505Z,9.30
2019-05-06T08:56:46.647Z,9.40
2019-05-06T08:59:24.019Z,9.50
2019-05-06T09:01:58.214Z,9.50
2019-05-06T09:04:32.103Z,9.50
2019-05-06T09:07:05.121Z,9.60
2019-05-06T09:09:42.096Z,9.70
2019-05-06T09:19:08.737Z,10.10
2019-05-06T09:21:48.402Z,10.20
2019-05-06T09:24:23.073Z,10.30
2019-05-06T09:33:35.783Z,10.50
2019-05-06T09:36:09.289Z,10.60
2019-05-06T09:38:42.452Z,10.60
2019-05-06T09:41:15.135Z,10.60
2019-05-06T09:43:56.039Z,10.70
2019-05-06T09:46:28.311Z,10.70
2019-05-06T09:49:12.632Z,10.70
2019-05-06T09:51:43.607Z,10.70
2019-05-06T10:00:52.518Z,10.60
2019-05-06T10:03:26.238Z,10.50
2019-05-06T10:05:57.266Z,10.50
2019-05-06T10:08:28.670Z,10.50
2019-05-06T10:11:03.699Z,10.40
2019-05-06T10:17:04.945Z,10.40
2019-05-06T10:19:36.243Z,10.40
2019-05-06T10:22:08.164Z,10.30
2019-05-06T10:24:38.914Z,10.30
2019-05-06T10:27:22.692Z,10.40
2019-05-06T10:30:03.279Z,10.40
2019-05-06T10:32:52.874Z,10.40
2019-05-06T10:35:42.696Z,10.50
2019-05-06T10:38:52.913Z,10.50
2019-05-06T10:41:25.745Z,10.60
2019-05-06T10:47:33.093Z,10.80
2019-05-06T10:50:05.444Z,10.90
2019-05-06T10:58:49.335Z,11.00
2019-05-06T11:01:25.877Z,11.00
2019-05-06T11:03:59.219Z,11.10
2019-05-06T11:06:36.521Z,11.10
2019-05-06T11:09:08.549Z,11.10
2019-05-06T11:14:39.767Z,11.20
2019-05-06T11:22:54.208Z,11.30
2019-05-06T11:25:26.751Z,11.40
2019-05-06T11:31:43.390Z,11.50
2019-05-06T11:40:56.235Z,11.50
2019-05-06T11:43:27.651Z,11.60
2019-05-06T11:46:05.599Z,11.70
2019-05-06T11:48:43.183Z,11.70
2019-05-06T11:51:16.313Z,11.80
2019-05-06T11:53:54.129Z,11.90
2019-05-06T11:56:32.543Z,12.00
2019-05-06T11:59:06.685Z,12.00
2019-05-06T12:01:43.443Z,12.10
2019-05-06T12:07:24.578Z,12.10
2019-05-06T12:09:58.564Z,12.10
2019-05-06T12:12:30.846Z,12.10
2019-05-06T12:15:06.696Z,12.20
2019-05-06T12:17:37.119Z,12.20
2019-05-06T12:20:07.954Z,12.30
2019-05-06T12:22:44.082Z,12.30
2019-05-06T12:25:27.490Z,12.40
2019-05-06T12:28:02.872Z,12.30
2019-05-06T12:30:33.529Z,12.40
2019-05-06T12:33:23.410Z,12.40
2019-05-06T12:35:58.605Z,12.40
2019-05-06T12:38:33.827Z,12.40
2019-05-06T12:41:08.541Z,12.50
2019-05-06T12:43:49.601Z,12.50
2019-05-06T12:46:24.721Z,12.60
2019-05-06T12:52:19.026Z,12.70
2019-05-06T12:54:53.859Z,12.70
2019-05-06T13:03:35.578Z,12.80
2019-05-06T13:06:08.948Z,12.90
2019-05-06T13:08:56.052Z,13.00
2019-05-06T13:11:13.802Z,13.10
2019-05-06T13:13:56.781Z,13.20
2019-05-06T13:16:19.159Z,13.20
2019-05-06T13:18:52.567Z,13.20
2019-05-06T13:21:24.652Z,13.20
2019-05-06T13:30:50.143Z,13.40
2019-05-06T13:37:09.289Z,13.50
2019-05-06T13:39:43.179Z,13.50
2019-05-06T13:42:14.032Z,13.60
2019-05-06T13:44:45.717Z,13.70
2019-05-06T13:47:22.940Z,13.70
2019-05-06T13:49:56.910Z,13.70
2019-05-06T13:52:35.823Z,13.70
2019-05-06T13:55:07.632Z,13.70
2019-05-06T13:57:39.687Z,13.80
2019-05-06T14:06:28.962Z,13.90
2019-05-06T14:09:02.546Z,13.90
2019-05-06T14:14:59.690Z,13.80
2019-05-06T14:17:33.668Z,13.80
2019-05-06T14:20:08.734Z,13.80
2019-05-06T14:22:43.777Z,13.80
2019-05-06T14:25:28.887Z,13.90
2019-05-06T14:31:27.443Z,14.00
2019-05-06T14:33:58.881Z,14.10
2019-05-06T14:36:32.523Z,14.10
2019-05-06T14:39:08.916Z,14.20
2019-05-06T14:41:44.533Z,14.40
2019-05-06T14:50:48.665Z,14.80
2019-05-06T14:59:36.810Z,14.90
2019-05-06T15:02:09.289Z,14.90
2019-05-06T15:04:43.471Z,14.80
2019-05-06T15:14:13.053Z,14.80
2019-05-06T15:16:43.719Z,14.90
2019-05-06T15:25:32.542Z,14.70
2019-05-06T15:35:06.298Z,14.60
2019-05-06T15:43:33.323Z,14.10
2019-05-06T15:46:03.517Z,14.00
2019-05-06T15:48:34.463Z,14.00
2019-05-06T15:51:04.927Z,13.90
2019-05-06T15:57:18.049Z,13.90
2019-05-06T15:59:48.915Z,13.90
2019-05-06T16:05:34.637Z,13.90
2019-05-06T16:08:08.843Z,13.80
2019-05-06T16:16:25.296Z,13.60
2019-05-06T16:18:55.227Z,13.50
2019-05-06T16:27:12.271Z,13.50
2019-05-06T16:29:45.324Z,13.50
2019-05-06T16:32:15.951Z,13.50
2019-05-06T16:40:45.405Z,13.40
2019-05-06T16:43:17.386Z,13.40
2019-05-06T16:51:30.116Z,13.40
2019-05-06T16:54:03.688Z,13.30
2019-05-06T17:02:57.946Z,13.30
2019-05-06T17:05:57.562Z,13.30
2019-05-06T17:08:36.487Z,13.20
2019-05-06T17:14:33.508Z,13.20
2019-05-06T17:17:03.986Z,13.20
2019-05-06T17:19:34.138Z,13.10
2019-05-06T17:22:04.458Z,13.10
2019-05-06T17:24:42.542Z,13.10
2019-05-06T17:34:03.913Z,13.00
2019-05-06T17:36:36.863Z,13.00
2019-05-06T17:39:12.166Z,13.00
2019-05-06T17:45:58.524Z,12.90
2019-05-06T17:48:30.170Z,12.80
2019-05-06T17:51:28.949Z,12.80
2019-05-06T17:57:33.251Z,12.60
2019-05-06T18:06:42.223Z,12.20
2019-05-06T18:15:24.711Z,12.00
2019-05-06T18:18:02.192Z,11.90
2019-05-06T18:27:07.063Z,11.70
2019-05-06T18:33:25.916Z,11.60
2019-05-06T18:41:47.587Z,11.40
2019-05-06T18:47:53.142Z,11.40
2019-05-06T18:56:54.568Z,11.20
2019-05-06T19:06:02.402Z,11.00
2019-05-06T19:08:46.124Z,10.90
2019-05-06T19:18:05.675Z,10.70
2019-05-06T19:20:36.167Z,10.60
2019-05-06T19:26:12.795Z,10.50
2019-05-06T19:28:43.568Z,10.40
2019-05-06T19:37:57.034Z,10.20
2019-05-06T19:40:28.131Z,10.30
2019-05-06T19:55:53.085Z,10.40
2019-05-06T19:58:25.163Z,10.30
2019-05-06T20:07:36.648Z,10.10
2019-05-06T20:10:24.227Z,10.10
2019-05-06T20:16:05.990Z,10.00
2019-05-06T20:24:49.056Z,9.80
2019-05-06T20:30:25.565Z,9.70
2019-05-06T20:32:58.699Z,9.80
2019-05-06T20:39:12.610Z,9.80
2019-05-06T20:41:43.466Z,9.70
2019-05-06T20:44:14.811Z,9.70
2019-05-06T20:53:32.529Z,9.50
2019-05-06T20:56:04.038Z,9.40
2019-05-06T20:58:34.827Z,9.40
2019-05-06T21:01:05.348Z,9.40
2019-05-06T21:03:35.563Z,9.40
2019-05-06T21:06:08.296Z,9.40
2019-05-06T21:15:15.679Z,9.40
2019-05-06T21:24:15.606Z,9.30
2019-05-06T21:26:46.589Z,9.20
2019-05-06T21:29:17.276Z,9.20
2019-05-06T21:31:48.518Z,9.10
2019-05-06T21:34:22.351Z,9.10
2019-05-06T21:36:53.338Z,9.00
2019-05-06T21:39:24.656Z,8.90
2019-05-06T21:48:05.062Z,8.70
2019-05-06T21:50:36.082Z,8.60
2019-05-06T21:53:06.886Z,8.50
2019-05-06T21:55:39.108Z,8.40
2019-05-06T22:04:12.767Z,8.40
2019-05-06T22:06:45.536Z,8.40
2019-05-06T22:09:16.880Z,8.30
2019-05-06T22:14:59.499Z,8.20
2019-05-06T22:17:33.716Z,8.10
2019-05-06T22:27:02.885Z,7.90
2019-05-06T22:29:34.933Z,7.80
2019-05-06T22:32:08.220Z,7.80
2019-05-06T22:35:06.043Z,7.70
2019-05-06T22:37:46.514Z,7.60
2019-05-06T22:40:18.428Z,7.60
2019-05-06T22:42:49.723Z,7.50
2019-05-06T22:45:22.334Z,7.50
2019-05-06T22:47:54.296Z,7.50
2019-05-06T22:50:25.134Z,7.40
2019-05-06T22:52:57.777Z,7.40
2019-05-06T22:55:28.670Z,7.40
2019-05-06T22:57:59.646Z,7.30
2019-05-06T23:00:33.296Z,7.20
2019-05-06T23:03:09.047Z,7.20
2019-05-06T23:05:42.791Z,7.10
2019-05-06T23:08:15.682Z,7.10
2019-05-06T23:10:46.076Z,7.00
2019-05-06T23:13:19.137Z,7.00
2019-05-06T23:15:52.374Z,7.00
2019-05-06T23:18:24.366Z,6.90
2019-05-06T23:20:55.590Z,6.90
2019-05-06T23:23:27.198Z,6.80
2019-05-06T23:26:16.673Z,6.70
2019-05-06T23:28:48.335Z,6.70
2019-05-06T23:31:18.875Z,6.60
2019-05-06T23:33:49.150Z,6.60
2019-05-06T23:36:24.429Z,6.50
2019-05-06T23:39:32.196Z,6.50
2019-05-06T23:42:37.772Z,6.50
2019-05-06T23:45:43.843Z,6.40
2019-05-06T23:48:49.562Z,6.40
2019-05-06T23:51:55.673Z,6.40
2019-05-06T23:55:03.267Z,6.40
2019-05-06T23:57:32.552Z,6.30
